Time;durP1;ratioP1;P1;durP2;ratioP2;P2;SDS_P1;SDS_P2;PMS_P1;PMS_P2;Temp;Humidity;BMP_temperature;BMP_pressure;BME280_temperature;BME280_humidity;BME280_pressure;Samples;Min_cycle;Max_cycle;Signal;HPM_P1;HPM_P2
2022/08/02 00:01:27;;;;;;;18.47;17.83;;;21.70;45.60;;;;;;6279020;22;20465;-62
2022/08/02 00:03:52;;;;;;;20.07;19.17;;;22.00;44.90;;;;;;6279430;22;20164;-62
2022/08/02 00:06:18;;;;;;;19.20;18.50;;;22.20;44.20;;;;;;6306893;22;20192;-62
2022/08/02 00:08:44;;;;;;;19.50;18.80;;;22.40;43.00;;;;;;6279080;22;20177;-62
2022/08/02 00:11:09;;;;;;;19.60;18.90;;;22.40;43.50;;;;;;6278983;22;20165;-62
2022/08/02 00:13:35;;;;;;;19.53;18.70;;;22.30;44.40;;;;;;6279195;22;20150;-62
2022/08/02 00:16:01;;;;;;;19.87;18.97;;;22.00;46.20;;;;;;6279176;22;20189;-62
2022/08/02 00:18:27;;;;;;;19.70;18.90;;;22.20;45.30;;;;;;6279223;22;20208;-62
2022/08/02 00:20:52;;;;;;;20.47;19.40;;;22.20;44.70;;;;;;6278884;22;20232;-63
2022/08/02 00:23:18;;;;;;;19.80;19.10;;;22.30;43.90;;;;;;6279303;22;20158;-63
2022/08/02 00:25:43;;;;;;;20.50;19.70;;;22.40;43.50;;;;;;6279705;22;20154;-65
2022/08/02 00:28:12;;;;;;;20.60;19.70;;;22.40;42.90;;;;;;6279038;22;20662;-62
2022/08/02 00:30:38;;;;;;;19.50;18.67;;;22.40;44.00;;;;;;6279272;22;20199;-62
2022/08/02 00:33:04;;;;;;;19.87;18.80;;;21.90;46.40;;;;;;6281051;22;20417;-62
2022/08/02 00:35:31;;;;;;;19.90;19.10;;;21.70;48.20;;;;;;6281037;22;20379;-62
2022/08/02 00:37:57;;;;;;;20.00;19.20;;;21.30;49.50;;;;;;6280944;22;20438;-62
2022/08/02 00:40:23;;;;;;;20.00;19.20;;;21.20;49.80;;;;;;6308042;22;20365;-62
2022/08/02 00:43:06;;;;;;;20.17;19.27;;;21.20;50.00;;;;;;6281019;22;20242;-62
2022/08/02 00:45:37;;;;;;;20.27;19.53;;;21.10;50.60;;;;;;6280935;22;20387;-63
2022/08/02 00:48:05;;;;;;;19.63;18.83;;;21.00;50.80;;;;;;6280885;22;20447;-62
2022/08/02 00:50:32;;;;;;;20.57;19.70;;;21.00;50.80;;;;;;6280605;22;20708;-62
2022/08/02 00:52:58;;;;;;;20.37;19.47;;;20.90;51.00;;;;;;6280780;22;20385;-63
2022/08/02 00:55:25;;;;;;;20.27;19.47;;;21.00;50.60;;;;;;6281262;22;20408;-62
2022/08/02 00:57:50;;;;;;;19.93;19.03;;;21.20;49.50;;;;;;6280885;22;20398;-63
2022/08/02 01:00:16;;;;;;;20.50;19.60;;;21.20;49.10;;;;;;6280686;22;20463;-63
2022/08/02 01:02:42;;;;;;;19.97;19.03;;;21.60;46.80;;;;;;6281004;22;20151;-62
2022/08/02 01:05:08;;;;;;;19.57;18.73;;;21.80;45.20;;;;;;6280736;22;20380;-63
2022/08/02 01:07:34;;;;;;;19.57;18.60;;;22.00;44.50;;;;;;6280874;22;20602;-62
2022/08/02 01:09:59;;;;;;;19.70;18.97;;;21.60;46.50;;;;;;6280609;22;20392;-63
2022/08/02 01:12:26;;;;;;;20.33;19.43;;;21.30;47.40;;;;;;6280834;22;20200;-62
2022/08/02 01:14:54;;;;;;;19.23;18.53;;;21.10;48.20;;;;;;6280707;22;20379;-63
2022/08/02 01:17:26;;;;;;;19.90;19.10;;;21.20;47.60;;;;;;6280521;22;20377;-62
2022/08/02 01:20:10;;;;;;;19.30;18.60;;;21.10;47.80;;;;;;6280412;22;20388;-62
2022/08/02 01:23:24;;;;;;;20.30;19.20;;;21.00;48.10;;;;;;6280635;22;20376;-62
2022/08/02 01:26:09;;;;;;;18.80;18.10;;;21.10;47.20;;;;;;6280786;22;20478;-62
2022/08/02 01:29:00;;;;;;;19.30;18.60;;;21.00;47.50;;;;;;6280512;22;20904;-62
2022/08/02 01:31:39;;;;;;;19.40;18.60;;;20.90;47.20;;;;;;6280296;22;20387;-62
2022/08/02 01:34:27;;;;;;;19.37;18.57;;;20.90;48.00;;;;;;6280630;22;20463;-62
2022/08/02 01:37:15;;;;;;;20.73;19.93;;;20.70;48.60;;;;;;6280673;22;20871;-62
2022/08/02 01:39:44;;;;;;;20.07;19.37;;;20.60;48.90;;;;;;6280512;22;20534;-62
2022/08/02 01:42:10;;;;;;;19.50;18.80;;;20.60;49.30;;;;;;6279980;22;20415;-62
2022/08/02 01:44:40;;;;;;;19.10;18.40;;;20.60;49.40;;;;;;6280311;22;20372;-62
2022/08/02 01:47:10;;;;;;;19.03;18.33;;;20.50;49.50;;;;;;6280241;22;20408;-62
2022/08/02 01:49:38;;;;;;;20.40;19.40;;;20.50;49.40;;;;;;6280320;22;20416;-62
2022/08/02 01:52:20;;;;;;;19.67;18.97;;;20.50;49.40;;;;;;6307693;22;20383;-62
2022/08/02 01:55:15;;;;;;;19.97;19.27;;;20.60;49.10;;;;;;6280544;22;20438;-62
2022/08/02 01:57:46;;;;;;;19.27;18.57;;;20.50;49.10;;;;;;6266463;22;20388;-62
2022/08/02 02:00:13;;;;;;;19.70;18.93;;;20.60;48.80;;;;;;6279963;22;20385;-62
2022/08/02 02:02:42;;;;;;;20.10;19.30;;;20.60;48.40;;;;;;6280396;22;20376;-62
2022/08/02 02:05:12;;;;;;;19.77;19.00;;;20.50;48.60;;;;;;6280645;22;20388;-62
2022/08/02 02:07:39;;;;;;;19.93;19.03;;;20.60;48.30;;;;;;6280179;22;20373;-62
2022/08/02 02:10:07;;;;;;;20.13;19.20;;;20.60;48.30;;;;;;6279774;22;20377;-63
2022/08/02 02:12:35;;;;;;;19.97;19.27;;;20.60;48.00;;;;;;6280107;22;20380;-62
2022/08/02 02:15:02;;;;;;;19.97;19.17;;;20.70;47.70;;;;;;6280118;22;20369;-63
2022/08/02 02:17:30;;;;;;;20.60;19.60;;;20.60;47.70;;;;;;6280283;22;20407;-63
2022/08/02 02:19:58;;;;;;;19.40;18.70;;;20.70;47.50;;;;;;6280114;22;20813;-62
2022/08/02 02:22:24;;;;;;;20.03;19.10;;;20.60;48.00;;;;;;6307529;22;20377;-62
2022/08/02 02:24:50;;;;;;;20.00;19.20;;;20.50;48.50;;;;;;6280169;22;20434;-62
2022/08/02 02:27:16;;;;;;;20.20;19.40;;;20.50;48.80;;;;;;6279947;22;20162;-62
2022/08/02 02:29:45;;;;;;;19.27;18.47;;;20.40;48.80;;;;;;6280087;22;20417;-62
2022/08/02 02:32:13;;;;;;;20.17;19.27;;;20.40;48.70;;;;;;6279679;22;20404;-62
2022/08/02 02:34:43;;;;;;;20.10;19.20;;;20.40;48.50;;;;;;6280226;22;20377;-62
2022/08/02 02:37:14;;;;;;;19.40;18.50;;;20.40;48.50;;;;;;6279806;22;20383;-62
2022/08/02 02:39:41;;;;;;;19.60;18.90;;;20.50;47.80;;;;;;6280043;22;20410;-62
2022/08/02 02:42:09;;;;;;;20.13;19.07;;;20.40;47.70;;;;;;6279118;22;20381;-62
2022/08/02 02:44:37;;;;;;;20.00;19.30;;;20.40;48.10;;;;;;6279906;22;20376;-62
2022/08/02 02:47:04;;;;;;;19.43;18.53;;;20.30;48.00;;;;;;6279936;22;20380;-63
2022/08/02 02:49:33;;;;;;;19.70;19.00;;;20.40;47.40;;;;;;6279847;22;20787;-62
2022/08/02 02:51:59;;;;;;;19.90;19.20;;;20.50;47.20;;;;;;6279649;22;20450;-62
2022/08/02 02:54:26;;;;;;;19.93;19.23;;;20.50;48.10;;;;;;6279401;22;20821;-72
2022/08/02 02:56:53;;;;;;;20.13;19.43;;;20.60;47.50;;;;;;6279659;22;20376;-72
2022/08/02 02:59:19;;;;;;;20.70;19.90;;;20.60;48.00;;;;;;6279727;22;20407;-72
2022/08/02 03:01:45;;;;;;;21.47;20.57;;;20.60;47.30;;;;;;6279467;22;20385;-72
2022/08/02 03:04:12;;;;;;;21.40;20.50;;;20.60;47.10;;;;;;6279683;22;20160;-72
2022/08/02 03:06:38;;;;;;;21.73;20.93;;;20.60;47.10;;;;;;6279632;22;20385;-72
2022/08/02 03:09:05;;;;;;;21.97;21.13;;;20.60;47.10;;;;;;6279465;22;20834;-72
2022/08/02 03:11:32;;;;;;;22.77;21.87;;;20.40;47.70;;;;;;6279357;22;20375;-72
2022/08/02 03:14:04;;;;;;;22.43;21.43;;;20.20;48.60;;;;;;6279832;22;20384;-73
2022/08/02 03:16:30;;;;;;;22.53;21.53;;;20.00;49.80;;;;;;6279550;22;20404;-72
2022/08/02 03:18:57;;;;;;;22.40;21.40;;;20.10;49.10;;;;;;6279583;22;20833;-72
2022/08/02 03:21:23;;;;;;;19.97;19.17;;;20.20;47.90;;;;;;6279284;22;20397;-63
2022/08/02 03:23:49;;;;;;;20.20;19.40;;;20.20;48.00;;;;;;6279499;22;20386;-63
2022/08/02 03:26:15;;;;;;;19.77;19.07;;;20.40;46.90;;;;;;6279447;22;20392;-63
2022/08/02 03:28:42;;;;;;;20.30;19.50;;;20.80;45.70;;;;;;6279447;22;20416;-63
2022/08/02 03:31:08;;;;;;;21.00;20.20;;;21.10;43.90;;;;;;6279212;22;20525;-63
2022/08/02 03:33:34;;;;;;;21.23;20.20;;;20.80;44.40;;;;;;6279377;22;20416;-61
2022/08/02 03:36:09;;;;;;;20.80;20.00;;;20.60;45.10;;;;;;6279403;22;20563;-62
2022/08/02 03:38:36;;;;;;;21.23;20.00;;;20.40;45.70;;;;;;6279968;22;20380;-61
2022/08/02 03:41:04;;;;;;;20.97;20.17;;;20.20;47.00;;;;;;6279152;22;20474;-61
2022/08/02 03:43:30;;;;;;;21.00;20.10;;;20.10;46.80;;;;;;6279555;22;20387;-62
2022/08/02 03:45:56;;;;;;;20.80;19.80;;;20.20;47.10;;;;;;6279482;22;20376;-62
2022/08/02 03:48:23;;;;;;;20.17;19.47;;;20.10;47.10;;;;;;6279115;22;20181;-62
2022/08/02 03:50:50;;;;;;;20.83;19.60;;;20.10;47.30;;;;;;6279166;22;20445;-61
2022/08/02 03:53:17;;;;;;;20.20;19.50;;;20.10;47.10;;;;;;6279336;22;20404;-62
2022/08/02 03:55:43;;;;;;;21.17;20.37;;;20.20;46.50;;;;;;6279481;22;20408;-62
2022/08/02 03:58:19;;;;;;;21.23;20.23;;;20.30;46.20;;;;;;6279088;22;20399;-62
2022/08/02 04:00:45;;;;;;;21.57;20.50;;;20.20;46.00;;;;;;6279082;22;20372;-62
2022/08/02 04:03:11;;;;;;;22.03;21.13;;;20.20;45.60;;;;;;6279078;22;20388;-62
2022/08/02 04:05:37;;;;;;;21.50;20.70;;;20.20;45.70;;;;;;6308270;22;20435;-62
2022/08/02 04:08:03;;;;;;;21.93;21.03;;;20.10;45.80;;;;;;6281408;22;20174;-62
2022/08/02 04:10:28;;;;;;;20.70;19.90;;;20.20;45.70;;;;;;6281135;22;20153;-62
2022/08/02 04:12:55;;;;;;;19.90;19.10;;;20.10;46.30;;;;;;6281229;22;20380;-62
2022/08/02 04:15:22;;;;;;;19.60;18.80;;;20.00;46.40;;;;;;6281237;22;20146;-62
2022/08/02 04:17:53;;;;;;;20.23;19.43;;;20.00;46.90;;;;;;6281458;22;20372;-62
2022/08/02 04:20:23;;;;;;;21.73;20.93;;;19.90;47.00;;;;;;6281163;22;20701;-61
2022/08/02 04:22:56;;;;;;;22.00;21.00;;;20.00;46.80;;;;;;6281124;22;20369;-61
2022/08/02 04:25:23;;;;;;;22.00;21.10;;;20.10;46.00;;;;;;6281220;22;20376;-62
2022/08/02 04:27:50;;;;;;;23.30;22.20;;;20.10;46.20;;;;;;6281150;22;20376;-62
2022/08/02 04:30:16;;;;;;;23.10;22.20;;;20.00;45.80;;;;;;6280902;22;20425;-62
2022/08/02 04:32:44;;;;;;;20.03;19.20;;;20.10;45.70;;;;;;6281126;22;20372;-62
2022/08/02 04:35:10;;;;;;;20.60;19.60;;;20.10;45.50;;;;;;6280819;22;20449;-62
2022/08/02 04:37:37;;;;;;;20.80;19.80;;;20.10;45.50;;;;;;6281168;22;20411;-62
2022/08/02 04:40:10;;;;;;;20.07;19.07;;;20.00;45.70;;;;;;6280751;22;20195;-62
2022/08/02 04:42:36;;;;;;;21.20;20.40;;;20.00;45.50;;;;;;6280967;22;20442;-71
2022/08/02 04:45:03;;;;;;;21.00;20.20;;;20.10;45.50;;;;;;6281232;22;20380;-71
2022/08/02 04:47:29;;;;;;;21.00;20.07;;;20.10;45.30;;;;;;6281182;22;20714;-71
2022/08/02 04:49:55;;;;;;;22.17;20.20;;;20.10;45.10;;;;;;6308319;22;20414;-71
2022/08/02 04:52:20;;;;;;;21.50;20.30;;;20.10;44.80;;;;;;6280997;22;20787;-72
2022/08/02 04:54:46;;;;;;;20.10;19.27;;;20.00;44.70;;;;;;6281086;22;20189;-72
2022/08/02 04:59:56;;;;;;;20.63;19.57;;;20.20;44.10;;;;;;6308400;22;20146;-72
2022/08/02 05:02:21;;;;;;;20.43;19.53;;;20.40;43.70;;;;;;6280836;22;20376;-72
2022/08/02 05:04:47;;;;;;;20.97;19.90;;;20.50;43.40;;;;;;6281103;22;20222;-72
2022/08/02 05:07:12;;;;;;;21.13;20.23;;;20.40;44.40;;;;;;6280705;22;20158;-72
2022/08/02 05:09:38;;;;;;;21.63;20.83;;;20.60;43.50;;;;;;6280635;22;20178;-71
2022/08/02 05:12:04;;;;;;;21.70;20.80;;;20.60;43.10;;;;;;6280653;22;20244;-72
2022/08/02 05:14:30;;;;;;;20.17;19.30;;;20.40;44.00;;;;;;6280675;22;20154;-72
2022/08/02 05:16:56;;;;;;;20.20;19.40;;;20.50;43.60;;;;;;6280615;22;21018;-72
2022/08/02 05:19:21;;;;;;;20.47;19.77;;;20.60;43.30;;;;;;6280573;22;20736;-72
2022/08/02 05:21:47;;;;;;;21.50;20.70;;;21.00;41.20;;;;;;6280512;22;20247;-72
2022/08/02 05:24:12;;;;;;;19.80;19.00;;;20.90;41.10;;;;;;6280752;22;20594;-71
2022/08/02 05:26:38;;;;;;;21.07;20.27;;;20.70;41.60;;;;;;6280863;22;20161;-71
2022/08/02 05:29:04;;;;;;;19.93;18.93;;;20.80;41.00;;;;;;6280485;22;20601;-71
2022/08/02 05:31:30;;;;;;;21.00;20.20;;;20.60;40.80;;;;;;6280436;22;20157;-72
2022/08/02 05:33:56;;;;;;;22.00;21.10;;;20.50;41.40;;;;;;6280609;22;20384;-72
2022/08/02 05:36:21;;;;;;;23.07;21.90;;;20.50;42.10;;;;;;6280595;22;20232;-72
2022/08/02 05:38:49;;;;;;;22.33;21.43;;;20.70;41.40;;;;;;6280538;22;20162;-63
2022/08/02 05:41:14;;;;;;;23.70;22.67;;;20.90;40.10;;;;;;6279876;22;20161;-63
2022/08/02 05:43:40;;;;;;;23.00;22.03;;;21.20;38.60;;;;;;6280543;22;20384;-62
2022/08/02 05:46:06;;;;;;;20.83;20.00;;;21.30;37.80;;;;;;6280301;22;20560;-61
2022/08/02 05:48:31;;;;;;;21.07;20.27;;;21.10;38.30;;;;;;6280283;22;20209;-62
2022/08/02 05:51:04;;;;;;;21.73;20.87;;;21.40;38.10;;;;;;6280166;22;20477;-62
2022/08/02 05:53:39;;;;;;;21.13;20.20;;;21.60;37.30;;;;;;6279622;22;20181;-62
2022/08/02 05:56:17;;;;;;;22.53;21.43;;;21.80;36.80;;;;;;6280494;22;20450;-63
2022/08/02 05:59:00;;;;;;;22.63;21.73;;;21.90;36.60;;;;;;6280214;22;20403;-62
2022/08/02 06:01:32;;;;;;;23.87;22.00;;;22.00;35.70;;;;;;6279974;22;20380;-62
2022/08/02 06:04:00;;;;;;;22.50;21.60;;;22.00;35.60;;;;;;6280214;22;20439;-61
2022/08/02 06:06:28;;;;;;;21.93;21.03;;;22.00;35.20;;;;;;6280080;22;20372;-62
2022/08/02 06:09:16;;;;;;;21.13;20.17;;;22.10;34.80;;;;;;6277350;22;20746;-63
2022/08/02 06:11:45;;;;;;;19.70;18.90;;;22.20;34.50;;;;;;6278536;22;20403;-63
2022/08/02 06:14:12;;;;;;;19.27;18.47;;;22.20;34.50;;;;;;6278886;22;20377;-63
2022/08/02 06:16:38;;;;;;;19.67;18.57;;;22.20;34.70;;;;;;6279975;22;20832;-63
2022/08/02 06:19:05;;;;;;;20.93;19.97;;;22.30;34.90;;;;;;6280484;22;20480;-63
2022/08/02 06:21:31;;;;;;;20.73;19.63;;;22.20;34.60;;;;;;6279512;22;20385;-63
2022/08/02 06:23:57;;;;;;;20.03;19.23;;;22.20;34.70;;;;;;6280200;22;20380;-63
2022/08/02 06:26:24;;;;;;;22.13;21.23;;;22.10;34.50;;;;;;6280046;22;20958;-62
2022/08/02 06:28:52;;;;;;;21.10;20.30;;;22.20;34.60;;;;;;6279316;22;20752;-62
2022/08/02 06:31:18;;;;;;;21.43;20.63;;;22.30;34.10;;;;;;6279548;22;20716;-62
2022/08/02 06:33:43;;;;;;;21.00;20.10;;;22.30;34.00;;;;;;6280016;22;20600;-62
2022/08/02 06:36:21;;;;;;;21.43;20.40;;;22.40;34.10;;;;;;6279956;22;20480;-63
2022/08/02 06:39:28;;;;;;;22.17;20.87;;;21.90;35.30;;;;;;6280009;22;20196;-63
2022/08/02 06:42:00;;;;;;;20.03;19.23;;;21.60;36.50;;;;;;6274009;22;20728;-63
2022/08/02 06:44:26;;;;;;;20.93;19.93;;;21.90;36.20;;;;;;6279856;22;20841;-62
2022/08/02 06:46:51;;;;;;;20.20;19.30;;;22.00;35.70;;;;;;6279634;22;20526;-63
2022/08/02 06:49:17;;;;;;;20.30;19.43;;;22.10;35.30;;;;;;6279995;22;20182;-72
2022/08/02 06:51:42;;;;;;;20.57;19.27;;;21.90;35.70;;;;;;6279530;22;20150;-72
2022/08/02 06:54:08;;;;;;;22.07;20.80;;;22.00;35.60;;;;;;6280064;22;20154;-72
2022/08/02 06:56:33;;;;;;;20.73;19.73;;;22.20;34.80;;;;;;6279646;22;20199;-72
2022/08/02 06:58:59;;;;;;;21.93;20.83;;;22.30;34.50;;;;;;6279604;22;20181;-72
2022/08/02 07:01:25;;;;;;;22.20;21.20;;;22.30;34.80;;;;;;6279288;22;20489;-74
2022/08/02 07:03:51;;;;;;;22.10;21.20;;;22.30;34.40;;;;;;6279696;22;20754;-72
2022/08/02 07:06:17;;;;;;;22.10;21.10;;;22.20;34.60;;;;;;6279845;22;20887;-63
2022/08/02 07:08:43;;;;;;;21.67;20.67;;;22.20;34.80;;;;;;6279418;22;20186;-62
2022/08/02 07:11:09;;;;;;;19.90;18.90;;;22.20;34.80;;;;;;6306811;22;20161;-63
2022/08/02 07:13:35;;;;;;;21.13;19.10;;;22.40;34.00;;;;;;6279360;22;20387;-63
2022/08/02 07:16:02;;;;;;;19.67;18.70;;;22.40;33.70;;;;;;6279475;22;20380;-71
2022/08/02 07:18:28;;;;;;;20.10;18.90;;;22.40;33.60;;;;;;6279626;22;20384;-72
2022/08/02 07:20:54;;;;;;;21.67;20.40;;;22.50;33.70;;;;;;6279234;22;20861;-68
2022/08/02 07:23:20;;;;;;;20.60;19.27;;;22.60;33.00;;;;;;6279338;22;20686;-70
2022/08/02 07:25:46;;;;;;;19.47;18.57;;;22.70;33.10;;;;;;6279384;22;20385;-70
2022/08/02 07:28:14;;;;;;;19.37;18.47;;;22.70;32.60;;;;;;6279163;22;20181;-68
2022/08/02 07:30:40;;;;;;;20.03;19.10;;;22.80;33.10;;;;;;6279654;22;20380;-69
2022/08/02 07:33:07;;;;;;;21.70;20.70;;;22.90;32.40;;;;;;6279340;22;20768;-69
2022/08/02 07:35:32;;;;;;;20.57;19.47;;;22.80;32.30;;;;;;6279429;22;20421;-70
2022/08/02 07:37:58;;;;;;;20.23;19.20;;;22.60;33.00;;;;;;6279646;22;20406;-70
2022/08/02 07:40:25;;;;;;;20.03;18.87;;;22.50;33.40;;;;;;6278722;22;20218;-73
2022/08/02 07:42:52;;;;;;;20.47;19.50;;;22.70;33.30;;;;;;6279188;22;20150;-73
2022/08/02 07:45:20;;;;;;;20.00;19.00;;;22.80;32.80;;;;;;6279182;22;20376;-73
2022/08/02 07:47:46;;;;;;;20.40;19.40;;;22.90;32.40;;;;;;6279184;22;20373;-69
2022/08/02 07:50:13;;;;;;;19.23;18.53;;;22.90;32.40;;;;;;6306332;22;20668;-70
2022/08/02 07:52:40;;;;;;;20.13;19.33;;;23.00;32.30;;;;;;6279384;22;20376;-69
2022/08/02 07:55:06;;;;;;;20.70;19.80;;;23.10;31.90;;;;;;6279217;22;20375;-70
2022/08/02 07:57:32;;;;;;;21.83;20.67;;;23.10;31.20;;;;;;6279183;22;20388;-70
2022/08/02 07:59:58;;;;;;;20.93;20.00;;;23.20;31.40;;;;;;6278975;22;20775;-69
2022/08/02 08:02:24;;;;;;;21.33;20.43;;;23.20;31.00;;;;;;6279246;22;20225;-74
2022/08/02 08:04:50;;;;;;;21.63;20.53;;;23.10;31.40;;;;;;6279221;22;20185;-73
2022/08/02 08:07:16;;;;;;;23.47;22.27;;;23.20;31.20;;;;;;6279216;22;20154;-73
2022/08/02 08:09:42;;;;;;;22.80;21.80;;;23.20;31.20;;;;;;6279151;22;20750;-73
2022/08/02 08:12:09;;;;;;;22.23;21.30;;;23.30;31.50;;;;;;6279000;22;20384;-73
2022/08/02 08:14:35;;;;;;;21.77;20.87;;;23.40;30.30;;;;;;6279315;22;20399;-73
2022/08/02 08:17:01;;;;;;;22.30;21.30;;;23.40;30.30;;;;;;6279068;22;20368;-72
2022/08/02 08:19:27;;;;;;;21.13;20.23;;;23.40;30.50;;;;;;6278805;22;20781;-73
2022/08/02 08:21:52;;;;;;;21.20;20.20;;;23.40;30.40;;;;;;6253175;22;20155;-73
2022/08/02 08:24:18;;;;;;;21.60;20.70;;;23.50;30.30;;;;;;6278910;22;20158;-72
2022/08/02 08:26:43;;;;;;;21.73;20.67;;;23.50;30.20;;;;;;6278794;22;20243;-72
2022/08/02 08:29:09;;;;;;;20.70;19.60;;;23.50;29.80;;;;;;6278749;22;20184;-71
2022/08/02 08:31:35;;;;;;;20.03;19.03;;;23.50;29.90;;;;;;6278541;22;20246;-71
2022/08/02 08:34:01;;;;;;;20.53;19.73;;;23.60;29.50;;;;;;6278956;22;20177;-72
2022/08/02 08:36:27;;;;;;;21.07;20.10;;;23.60;29.00;;;;;;6278928;22;20161;-70
2022/08/02 08:38:53;;;;;;;19.77;18.87;;;23.70;28.30;;;;;;6279042;22;20707;-71
2022/08/02 08:41:19;;;;;;;19.57;18.47;;;23.80;28.10;;;;;;6278652;22;20369;-71
2022/08/02 08:43:46;;;;;;;21.97;21.07;;;24.00;27.90;;;;;;6279006;22;20385;-71
2022/08/02 08:46:23;;;;;;;20.63;19.83;;;24.00;27.40;;;;;;6278213;22;20436;-71
2022/08/02 08:48:52;;;;;;;20.40;19.50;;;23.90;27.60;;;;;;6306250;22;20398;-71
2022/08/02 08:51:21;;;;;;;21.70;20.70;;;23.90;27.80;;;;;;6279084;22;20478;-71
2022/08/02 08:53:48;;;;;;;20.33;19.43;;;23.90;28.10;;;;;;6280998;22;20377;-71
2022/08/02 08:56:15;;;;;;;21.07;20.07;;;23.90;27.80;;;;;;6280865;22;20384;-72
2022/08/02 08:58:42;;;;;;;22.03;21.13;;;23.90;27.50;;;;;;6308348;22;20384;-71
2022/08/02 09:01:08;;;;;;;20.23;19.43;;;23.90;27.50;;;;;;6280589;22;20399;-71
2022/08/02 09:03:34;;;;;;;19.97;19.17;;;23.90;27.30;;;;;;6308186;22;20670;-62
2022/08/02 09:06:01;;;;;;;20.60;19.70;;;23.90;27.30;;;;;;6280863;22;20419;-62
2022/08/02 09:08:27;;;;;;;20.40;19.27;;;23.90;27.30;;;;;;6280533;22;20416;-62
2022/08/02 09:10:54;;;;;;;21.13;20.23;;;23.90;27.30;;;;;;6280359;22;20441;-62
2022/08/02 09:13:28;;;;;;;20.93;20.03;;;23.90;27.10;;;;;;6280545;22;20173;-62
2022/08/02 09:16:00;;;;;;;20.73;19.93;;;24.00;26.20;;;;;;6280566;22;20378;-62
2022/08/02 09:18:30;;;;;;;20.67;19.70;;;24.10;26.20;;;;;;6280536;22;20388;-62
2022/08/02 09:21:07;;;;;;;19.90;19.00;;;24.40;25.60;;;;;;6280221;22;20380;-61
2022/08/02 09:23:47;;;;;;;21.57;20.30;;;24.30;26.00;;;;;;6280649;22;20379;-62
2022/08/02 09:26:15;;;;;;;20.63;19.63;;;24.30;25.70;;;;;;6280278;22;20385;-62
2022/08/02 09:28:43;;;;;;;21.37;20.27;;;24.60;25.40;;;;;;6280461;22;20412;-62
2022/08/02 09:31:11;;;;;;;21.10;20.20;;;24.50;25.50;;;;;;6280193;22;20388;-62
2022/08/02 09:33:39;;;;;;;20.93;19.97;;;24.60;25.50;;;;;;6280671;22;20412;-62
2022/08/02 09:36:07;;;;;;;20.87;19.67;;;24.60;25.50;;;;;;6280361;22;20385;-62
2022/08/02 09:38:34;;;;;;;20.40;19.50;;;24.60;25.50;;;;;;6307866;22;20376;-62
2022/08/02 09:41:00;;;;;;;21.40;20.50;;;24.70;24.90;;;;;;6280013;22;20438;-63
2022/08/02 09:43:42;;;;;;;21.73;20.73;;;24.80;24.90;;;;;;6280342;22;20404;-67
2022/08/02 09:46:20;;;;;;;21.73;20.80;;;25.10;24.50;;;;;;6280257;22;20852;-63
2022/08/02 09:48:56;;;;;;;21.80;20.90;;;25.00;24.60;;;;;;6280298;22;20433;-63
2022/08/02 09:51:26;;;;;;;21.53;20.63;;;24.90;24.60;;;;;;6279755;22;20383;-63
2022/08/02 09:53:54;;;;;;;21.93;20.93;;;24.80;24.90;;;;;;6280337;22;20732;-63
2022/08/02 09:56:21;;;;;;;19.63;18.83;;;24.60;24.80;;;;;;6280082;22;20404;-62
2022/08/02 09:58:48;;;;;;;19.40;18.50;;;24.80;25.00;;;;;;6280235;22;20484;-62
2022/08/02 10:01:14;;;;;;;19.57;18.67;;;24.90;24.70;;;;;;6279382;22;20437;-63
2022/08/02 10:03:57;;;;;;;19.00;18.10;;;25.20;23.80;;;;;;6279841;22;20407;-61
2022/08/02 10:06:23;;;;;;;19.93;18.90;;;25.50;23.20;;;;;;6279447;22;20177;-62
2022/08/02 10:08:52;;;;;;;19.20;18.40;;;25.60;23.30;;;;;;6279553;22;20412;-62
2022/08/02 10:11:19;;;;;;;18.93;18.13;;;25.80;22.90;;;;;;6279244;22;20391;-62
2022/08/02 10:13:45;;;;;;;19.00;18.20;;;25.80;22.00;;;;;;6279580;22;20388;-62
2022/08/02 10:16:11;;;;;;;18.93;18.03;;;25.60;22.10;;;;;;6279456;22;20441;-62
2022/08/02 10:18:36;;;;;;;18.93;18.13;;;26.00;21.70;;;;;;6279532;22;20158;-62
2022/08/02 10:21:06;;;;;;;19.73;18.73;;;26.20;21.40;;;;;;6279418;22;20402;-62
2022/08/02 10:23:37;;;;;;;19.60;18.80;;;26.40;21.30;;;;;;6306850;22;20225;-62
2022/08/02 10:26:04;;;;;;;18.43;17.63;;;26.60;20.80;;;;;;6279566;22;20386;-63
2022/08/02 10:28:30;;;;;;;18.60;17.90;;;26.80;20.30;;;;;;6279383;22;20514;-63
2022/08/02 10:30:58;;;;;;;18.50;17.70;;;27.10;20.10;;;;;;6279096;22;20392;-63
2022/08/02 10:33:25;;;;;;;18.33;17.63;;;26.90;19.70;;;;;;6279177;22;20384;-63
2022/08/02 10:35:53;;;;;;;19.07;18.23;;;27.00;19.90;;;;;;6279393;22;20853;-63
2022/08/02 10:38:20;;;;;;;18.30;17.40;;;26.80;19.50;;;;;;6279166;22;20863;-63
2022/08/02 10:40:45;;;;;;;19.83;18.83;;;27.00;20.10;;;;;;6279715;22;20376;-63
2022/08/02 10:43:12;;;;;;;19.13;18.30;;;27.10;19.60;;;;;;6279272;22;20391;-63
2022/08/02 10:45:38;;;;;;;18.97;18.03;;;27.00;19.00;;;;;;6279392;22;20158;-63
2022/08/02 10:48:14;;;;;;;20.40;19.50;;;27.10;19.30;;;;;;6306384;22;20375;-63
2022/08/02 10:50:46;;;;;;;19.67;18.67;;;27.20;19.00;;;;;;6279104;22;20195;-63
2022/08/02 10:53:22;;;;;;;19.17;18.27;;;27.10;18.80;;;;;;6279548;22;20384;-72
2022/08/02 10:55:49;;;;;;;20.10;19.20;;;26.90;19.10;;;;;;6279224;22;20384;-72
2022/08/02 10:58:23;;;;;;;21.17;20.07;;;26.70;19.50;;;;;;6279362;22;20400;-72
2022/08/02 11:00:49;;;;;;;20.70;19.80;;;26.60;20.00;;;;;;6279398;22;20399;-72
2022/08/02 11:03:27;;;;;;;20.70;19.70;;;26.40;20.30;;;;;;6279420;22;20468;-72
2022/08/02 11:06:13;;;;;;;20.90;19.90;;;26.30;20.50;;;;;;6307201;22;20375;-72
2022/08/02 11:08:39;;;;;;;19.97;18.97;;;26.30;20.60;;;;;;6279703;22;20420;-72
2022/08/02 11:11:07;;;;;;;18.17;17.17;;;26.30;20.60;;;;;;6279045;22;20880;-72
2022/08/02 11:14:07;;;;;;;19.40;18.43;;;26.30;20.70;;;;;;6279111;22;20373;-72
2022/08/02 11:16:55;;;;;;;17.23;16.43;;;26.20;21.00;;;;;;6279410;22;20376;-71
2022/08/02 11:19:24;;;;;;;17.87;17.03;;;26.20;20.30;;;;;;6279325;22;20377;-71
2022/08/02 11:21:59;;;;;;;18.20;17.50;;;26.30;19.80;;;;;;6278776;22;20715;-71
2022/08/02 11:24:28;;;;;;;18.03;17.30;;;26.30;20.00;;;;;;6279106;22;20376;-72
2022/08/02 11:26:54;;;;;;;19.17;18.00;;;26.20;20.00;;;;;;6278954;22;20485;-72
2022/08/02 11:29:20;;;;;;;18.60;17.50;;;26.30;20.10;;;;;;6279147;22;20446;-72
2022/08/02 11:31:47;;;;;;;19.43;17.50;;;26.30;20.10;;;;;;6279098;22;20381;-71
2022/08/02 11:34:14;;;;;;;18.57;17.77;;;26.30;19.60;;;;;;6279282;22;20442;-71
2022/08/02 11:36:49;;;;;;;18.60;17.27;;;26.40;19.80;;;;;;6279287;22;20377;-72
2022/08/02 11:39:17;;;;;;;17.70;17.00;;;26.40;18.80;;;;;;6279332;22;20380;-72
2022/08/02 11:41:57;;;;;;;17.40;16.70;;;26.50;19.00;;;;;;6279225;22;20378;-72
2022/08/02 11:44:25;;;;;;;18.27;17.27;;;26.80;18.20;;;;;;6279286;22;20368;-72
2022/08/02 11:46:56;;;;;;;17.57;16.77;;;26.80;17.60;;;;;;6279152;22;20456;-72
2022/08/02 11:49:23;;;;;;;19.10;18.10;;;26.90;17.40;;;;;;6279003;22;20929;-72
2022/08/02 11:52:00;;;;;;;16.90;16.20;;;26.90;17.50;;;;;;6278724;22;20380;-72
2022/08/02 11:54:44;;;;;;;17.70;16.60;;;27.00;17.50;;;;;;6278924;22;20394;-72
2022/08/02 11:57:21;;;;;;;17.23;16.53;;;27.10;17.10;;;;;;6279130;22;20373;-71
2022/08/02 11:59:52;;;;;;;17.90;17.07;;;26.80;17.40;;;;;;6278845;22;20864;-73
2022/08/02 12:02:24;;;;;;;18.10;17.40;;;27.10;17.10;;;;;;6278471;22;20380;-70
2022/08/02 12:05:03;;;;;;;18.30;16.60;;;27.00;17.50;;;;;;6278876;22;20373;-73
2022/08/02 12:07:30;;;;;;;17.90;17.10;;;26.90;17.40;;;;;;6279278;22;20757;-72
2022/08/02 12:10:00;;;;;;;18.20;17.40;;;27.30;16.70;;;;;;6278760;22;20519;-72
2022/08/02 12:12:26;;;;;;;18.10;17.30;;;27.20;17.10;;;;;;6279322;22;20372;-71
2022/08/02 12:14:52;;;;;;;18.23;17.47;;;27.20;17.00;;;;;;6279197;22;20434;-71
2022/08/02 12:20:11;;;;;;;18.90;17.90;;;27.20;17.40;;;;;;6306134;22;20734;-71
2022/08/02 12:22:37;;;;;;;18.77;17.80;;;27.10;17.30;;;;;;6279000;22;20373;-72
2022/08/02 12:25:21;;;;;;;17.67;16.93;;;27.00;17.40;;;;;;6279204;22;20441;-72
2022/08/02 12:27:47;;;;;;;17.80;17.00;;;26.80;17.40;;;;;;6281194;22;20479;-72
2022/08/02 12:30:16;;;;;;;18.23;17.43;;;26.70;17.30;;;;;;6308584;22;20458;-71
2022/08/02 12:32:43;;;;;;;18.10;17.40;;;26.60;17.60;;;;;;6281088;22;20143;-72
2022/08/02 12:35:21;;;;;;;17.60;16.90;;;26.60;17.30;;;;;;6280953;22;20372;-72
2022/08/02 12:37:49;;;;;;;18.63;17.83;;;26.60;17.30;;;;;;6280998;22;20373;-71
2022/08/02 12:40:22;;;;;;;18.30;17.50;;;26.60;17.30;;;;;;6280820;22;20422;-71
2022/08/02 12:42:49;;;;;;;18.23;17.53;;;26.50;17.20;;;;;;6280843;22;20384;-71